createdAt,value
2023-05-16T00:00:16.586Z,6.13
2023-05-16T00:03:06.544Z,5.95
2023-05-16T00:05:56.266Z,6.00
2023-05-16T00:08:44.828Z,5.90
2023-05-16T00:15:59.672Z,6.15
2023-05-16T00:18:48.672Z,6.57
2023-05-16T00:21:38.337Z,7.00
2023-05-16T00:24:26.971Z,6.55
2023-05-16T00:27:15.752Z,6.68
2023-05-16T00:30:05.039Z,6.95
2023-05-16T00:32:56.313Z,6.70
2023-05-16T00:35:46.075Z,7.30
2023-05-16T00:38:34.877Z,6.70
2023-05-16T00:41:23.813Z,7.15
2023-05-16T00:44:12.551Z,7.18
2023-05-16T00:47:02.854Z,6.95
2023-05-16T00:49:53.077Z,7.38
2023-05-16T00:52:43.882Z,7.13
2023-05-16T00:55:32.541Z,7.43
2023-05-16T00:58:24.034Z,8.07
2023-05-16T01:01:13.584Z,7.88
2023-05-16T01:04:02.737Z,8.15
2023-05-16T01:06:52.832Z,7.93
2023-05-16T01:09:42.319Z,7.70
2023-05-16T01:12:38.746Z,7.65
2023-05-16T01:15:32.103Z,7.85
2023-05-16T01:18:31.176Z,7.38
2023-05-16T01:21:32.291Z,8.50
2023-05-16T01:24:34.484Z,7.72
2023-05-16T01:27:26.683Z,7.75
2023-05-16T01:30:17.399Z,7.55
2023-05-16T01:33:06.452Z,7.43
2023-05-16T01:36:01.450Z,8.25
2023-05-16T01:39:02.758Z,8.27
2023-05-16T01:42:02.326Z,8.05
2023-05-16T01:45:02.200Z,8.75
2023-05-16T01:47:58.317Z,8.60
2023-05-16T01:50:51.946Z,8.55
2023-05-16T01:53:41.102Z,8.55
2023-05-16T01:56:31.246Z,8.23
2023-05-16T01:59:22.034Z,8.90
2023-05-16T02:02:12.905Z,8.43
2023-05-16T02:05:01.651Z,8.57
2023-05-16T02:07:50.819Z,8.50
2023-05-16T02:10:41.398Z,8.82
2023-05-16T02:13:30.206Z,8.77
2023-05-16T02:16:18.950Z,9.45
2023-05-16T02:19:09.356Z,9.00
2023-05-16T02:22:01.101Z,9.18
2023-05-16T02:24:49.781Z,8.90
2023-05-16T02:27:38.494Z,8.90
2023-05-16T02:30:27.214Z,8.63
2023-05-16T02:33:15.989Z,9.43
2023-05-16T02:36:06.428Z,9.10
2023-05-16T02:38:55.462Z,8.82
2023-05-16T02:41:44.465Z,9.65
2023-05-16T02:44:33.398Z,9.38
2023-05-16T02:47:22.125Z,9.52
2023-05-16T02:50:11.618Z,8.98
2023-05-16T02:53:02.590Z,8.60
2023-05-16T02:55:51.693Z,9.35
2023-05-16T02:58:41.804Z,8.80
2023-05-16T03:01:31.114Z,8.95
2023-05-16T03:04:20.248Z,9.05
2023-05-16T03:07:09.267Z,9.50
2023-05-16T03:09:59.318Z,9.65
2023-05-16T03:12:51.323Z,9.23
2023-05-16T03:15:40.170Z,9.20
2023-05-16T03:18:29.325Z,9.57
2023-05-16T03:21:18.424Z,9.25
2023-05-16T03:24:08.260Z,9.07
2023-05-16T03:27:00.094Z,9.25
2023-05-16T03:29:48.776Z,9.60
2023-05-16T03:32:39.288Z,9.43
2023-05-16T03:35:28.669Z,9.13
2023-05-16T03:38:17.576Z,8.88
2023-05-16T03:41:06.586Z,8.68
2023-05-16T03:43:56.854Z,7.95
2023-05-16T03:46:46.031Z,8.98
2023-05-16T03:49:35.049Z,9.13
2023-05-16T03:52:23.813Z,9.20
2023-05-16T03:55:14.584Z,9.60
2023-05-16T03:58:03.784Z,9.07
2023-05-16T04:00:53.782Z,9.60
2023-05-16T04:03:42.465Z,10.15
2023-05-16T04:06:32.533Z,9.88
2023-05-16T04:09:21.300Z,10.23
2023-05-16T04:12:10.233Z,9.95
2023-05-16T04:14:59.322Z,10.57
2023-05-16T04:17:49.608Z,10.55
2023-05-16T04:20:38.329Z,13.77
2023-05-16T04:23:27.165Z,10.13
2023-05-16T04:26:15.952Z,9.60
2023-05-16T04:29:04.877Z,9.57
2023-05-16T04:31:54.204Z,10.18
2023-05-16T04:34:46.961Z,9.50
2023-05-16T04:37:35.883Z,9.73
2023-05-16T04:40:25.564Z,8.77
2023-05-16T04:43:14.363Z,9.60
2023-05-16T04:46:04.239Z,8.48
2023-05-16T04:48:53.235Z,8.40
2023-05-16T04:51:43.753Z,8.40
2023-05-16T04:54:33.139Z,8.40
2023-05-16T04:57:22.042Z,8.27
2023-05-16T05:00:12.194Z,9.02
2023-05-16T05:03:01.158Z,8.10
2023-05-16T05:05:50.140Z,8.60
2023-05-16T05:08:40.292Z,8.32
2023-05-16T05:11:29.032Z,7.80
2023-05-16T05:14:17.917Z,8.27
2023-05-16T05:17:07.471Z,8.10
2023-05-16T05:19:56.307Z,8.38
2023-05-16T05:22:45.120Z,8.15
2023-05-16T05:25:37.861Z,8.30
2023-05-16T05:28:26.913Z,7.80
2023-05-16T05:31:15.580Z,7.70
2023-05-16T05:34:04.652Z,7.78
2023-05-16T05:36:53.355Z,7.88
2023-05-16T05:39:41.984Z,7.70
2023-05-16T05:42:32.401Z,7.70
2023-05-16T05:45:21.073Z,8.55
2023-05-16T05:48:11.055Z,8.15
2023-05-16T05:50:59.718Z,8.90
2023-05-16T05:53:48.551Z,9.25
2023-05-16T05:56:37.546Z,8.63
2023-05-16T05:59:27.902Z,9.02
2023-05-16T06:02:17.655Z,8.30
2023-05-16T06:05:07.308Z,9.27
2023-05-16T06:07:56.053Z,9.88
2023-05-16T06:10:44.679Z,8.77
2023-05-16T06:13:33.676Z,9.63
2023-05-16T06:16:26.616Z,9.73
2023-05-16T06:19:16.538Z,11.05
2023-05-16T06:22:05.623Z,9.52
2023-05-16T06:24:54.802Z,10.20
2023-05-16T06:27:43.585Z,9.88
2023-05-16T06:30:32.704Z,9.40
2023-05-16T06:33:22.957Z,10.00
2023-05-16T06:36:11.764Z,9.77
2023-05-16T06:39:01.108Z,9.45
2023-05-16T06:41:49.882Z,9.23
2023-05-16T06:44:38.742Z,9.73
2023-05-16T06:47:27.768Z,9.38
2023-05-16T06:50:17.893Z,9.07
2023-05-16T06:53:07.472Z,10.00
2023-05-16T06:55:56.488Z,10.00
2023-05-16T06:58:45.208Z,10.23
2023-05-16T07:01:34.186Z,9.73
2023-05-16T07:04:23.104Z,10.57
2023-05-16T07:07:13.669Z,10.02
2023-05-16T07:10:02.526Z,9.27
2023-05-16T07:12:51.275Z,8.68
2023-05-16T07:15:40.195Z,8.95
2023-05-16T07:18:29.095Z,8.52
2023-05-16T07:21:17.784Z,9.23
2023-05-16T07:24:08.565Z,9.93
2023-05-16T07:26:57.301Z,8.65
2023-05-16T07:29:46.434Z,7.00
2023-05-16T07:32:35.117Z,6.32
2023-05-16T07:35:23.857Z,6.40
2023-05-16T07:38:13.316Z,5.53
2023-05-16T07:41:04.151Z,6.28
2023-05-16T07:43:52.916Z,5.30
2023-05-16T07:46:45.077Z,6.20
2023-05-16T07:49:34.280Z,6.20
2023-05-16T07:52:22.989Z,6.07
2023-05-16T07:55:12.001Z,6.03
2023-05-16T07:58:02.792Z,5.43
2023-05-16T08:00:51.507Z,5.45
2023-05-16T08:03:40.484Z,4.30
2023-05-16T08:06:29.995Z,4.68
2023-05-16T08:09:19.530Z,5.15
2023-05-16T08:12:09.553Z,3.78
2023-05-16T08:14:59.584Z,3.65
2023-05-16T08:17:48.386Z,4.03
2023-05-16T08:20:37.550Z,3.65
2023-05-16T08:23:26.364Z,3.30
2023-05-16T08:26:15.672Z,3.92
2023-05-16T08:29:05.085Z,3.60
2023-05-16T08:31:55.558Z,3.22
2023-05-16T08:34:48.248Z,3.53
2023-05-16T08:37:37.091Z,3.40
2023-05-16T08:40:27.891Z,3.60
2023-05-16T08:43:16.885Z,3.97
2023-05-16T08:46:05.753Z,3.92
2023-05-16T08:49:00.854Z,3.65
2023-05-16T08:51:52.353Z,3.75
2023-05-16T08:54:42.359Z,3.20
2023-05-16T08:57:33.572Z,3.85
2023-05-16T09:00:24.209Z,4.10
2023-05-16T09:03:13.566Z,3.50
2023-05-16T09:06:07.921Z,4.03
2023-05-16T09:08:57.451Z,4.10
2023-05-16T09:11:47.027Z,4.30
2023-05-16T09:14:36.597Z,4.15
2023-05-16T09:17:38.796Z,3.70
2023-05-16T09:20:31.435Z,3.50
2023-05-16T09:23:25.893Z,3.40
2023-05-16T09:26:15.059Z,3.83
2023-05-16T09:29:11.430Z,3.90
2023-05-16T09:32:10.354Z,3.83
2023-05-16T09:35:01.478Z,3.58
2023-05-16T09:37:53.130Z,3.70
2023-05-16T09:40:44.146Z,3.17
2023-05-16T09:43:34.490Z,3.00
2023-05-16T09:46:28.682Z,3.03
2023-05-16T09:49:17.745Z,3.20
2023-05-16T09:52:07.565Z,2.90
2023-05-16T09:54:56.815Z,2.95
2023-05-16T09:57:48.393Z,2.30
2023-05-16T10:00:37.163Z,2.53
2023-05-16T10:03:27.110Z,2.20
2023-05-16T10:06:17.331Z,2.70
2023-05-16T10:09:07.085Z,2.72
2023-05-16T10:11:57.735Z,2.60
2023-05-16T10:14:50.618Z,3.53
2023-05-16T10:17:42.084Z,2.50
2023-05-16T10:20:31.155Z,5.93
2023-05-16T10:23:22.680Z,2.40
2023-05-16T10:26:14.739Z,2.33
2023-05-16T10:29:05.393Z,2.30
2023-05-16T10:31:56.383Z,2.47
2023-05-16T10:34:47.141Z,2.40
2023-05-16T10:37:37.201Z,2.60
2023-05-16T10:40:30.306Z,2.70
2023-05-16T10:43:27.034Z,2.30
2023-05-16T10:46:16.226Z,2.60
2023-05-16T10:49:26.052Z,2.40
2023-05-16T10:52:15.877Z,2.03
2023-05-16T10:55:06.016Z,2.42
2023-05-16T10:57:54.896Z,2.30
2023-05-16T11:00:43.723Z,2.00
2023-05-16T11:03:32.594Z,2.47
2023-05-16T11:06:25.266Z,2.10
2023-05-16T11:09:28.517Z,2.13
2023-05-16T11:12:17.647Z,2.10
2023-05-16T11:15:20.599Z,2.10
2023-05-16T11:18:11.476Z,2.08
2023-05-16T11:21:05.828Z,2.10
2023-05-16T11:24:31.203Z,2.13
2023-05-16T11:27:24.842Z,3.20
2023-05-16T11:30:15.722Z,9.20
2023-05-16T11:33:04.836Z,12.73
2023-05-16T11:36:15.066Z,1.90
2023-05-16T11:39:09.643Z,1.60
2023-05-16T11:42:00.282Z,1.80
2023-05-16T11:44:49.162Z,2.10
2023-05-16T11:47:39.726Z,1.92
2023-05-16T11:50:29.157Z,7.03
2023-05-16T11:53:17.877Z,4.72
2023-05-16T11:56:09.881Z,2.30
2023-05-16T11:59:01.087Z,2.50
2023-05-16T12:01:50.632Z,3.10
2023-05-16T12:04:39.593Z,3.03
2023-05-16T12:07:30.155Z,2.13
2023-05-16T12:10:19.045Z,2.10
2023-05-16T12:13:08.228Z,2.50
2023-05-16T12:15:59.126Z,2.10
2023-05-16T12:18:48.424Z,2.13
2023-05-16T12:21:39.418Z,2.50
2023-05-16T12:24:32.611Z,3.80
2023-05-16T12:27:24.393Z,2.85
2023-05-16T12:30:14.337Z,2.28
2023-05-16T12:33:10.727Z,2.22
2023-05-16T12:36:02.014Z,2.75
2023-05-16T12:38:52.589Z,2.83
2023-05-16T12:41:43.538Z,2.90
2023-05-16T12:44:32.656Z,2.70
2023-05-16T12:47:21.634Z,2.72
2023-05-16T12:50:17.645Z,2.65
2023-05-16T12:53:06.801Z,2.70
2023-05-16T12:55:55.551Z,2.25
2023-05-16T12:58:44.578Z,2.63
2023-05-16T13:01:33.878Z,2.40
2023-05-16T13:04:23.915Z,2.60
2023-05-16T13:07:14.273Z,2.60
2023-05-16T13:10:04.421Z,2.65
2023-05-16T13:12:53.971Z,2.60
2023-05-16T13:15:43.120Z,2.63
2023-05-16T13:18:32.429Z,3.13
2023-05-16T13:21:22.540Z,3.08
2023-05-16T13:24:12.756Z,2.92
2023-05-16T13:27:02.341Z,2.72
2023-05-16T13:29:51.154Z,3.28
2023-05-16T13:32:40.150Z,3.10
2023-05-16T13:35:29.312Z,2.92
2023-05-16T13:38:18.985Z,3.97
2023-05-16T13:41:09.241Z,3.33
2023-05-16T13:43:57.984Z,3.65
2023-05-16T13:46:46.890Z,3.10
2023-05-16T13:49:35.788Z,3.00
2023-05-16T13:52:24.614Z,2.75
2023-05-16T13:55:13.473Z,2.67
2023-05-16T13:58:04.299Z,2.60
2023-05-16T14:00:53.674Z,2.47
2023-05-16T14:03:42.673Z,2.60
2023-05-16T14:06:31.749Z,2.22
2023-05-16T14:09:21.048Z,2.53
2023-05-16T14:12:10.294Z,2.28
2023-05-16T14:15:01.129Z,2.20
2023-05-16T14:17:50.042Z,2.33
2023-05-16T14:20:38.855Z,1.88
2023-05-16T14:23:27.571Z,2.20
2023-05-16T14:26:16.641Z,2.20
2023-05-16T14:29:06.051Z,2.10
2023-05-16T14:31:56.348Z,2.15
2023-05-16T14:34:45.323Z,2.35
2023-05-16T14:37:34.303Z,2.60
2023-05-16T14:40:23.718Z,2.20
2023-05-16T14:43:13.006Z,2.28
2023-05-16T14:46:02.358Z,2.08
2023-05-16T14:48:52.711Z,2.33
2023-05-16T14:51:41.541Z,2.50
2023-05-16T14:54:30.436Z,2.13
2023-05-16T14:57:19.650Z,2.22
2023-05-16T15:00:10.964Z,2.40
2023-05-16T15:02:59.777Z,2.20
2023-05-16T15:05:50.559Z,2.08
2023-05-16T15:08:39.477Z,2.67
2023-05-16T15:11:29.657Z,2.30
2023-05-16T15:14:18.666Z,2.25
2023-05-16T15:17:09.061Z,2.20
2023-05-16T15:19:58.766Z,2.20
2023-05-16T15:22:49.398Z,2.30
2023-05-16T15:25:38.152Z,2.30
2023-05-16T15:28:27.056Z,2.35
2023-05-16T15:31:15.928Z,2.67
2023-05-16T15:34:06.423Z,2.38
2023-05-16T15:36:55.266Z,2.28
2023-05-16T15:39:45.808Z,2.30
2023-05-16T15:42:35.499Z,2.25
2023-05-16T15:45:24.412Z,2.20
2023-05-16T15:48:13.252Z,2.28
2023-05-16T15:51:02.443Z,2.47
2023-05-16T15:53:51.440Z,2.50
2023-05-16T15:56:41.559Z,2.47
2023-05-16T15:59:30.367Z,2.40
2023-05-16T16:02:19.504Z,2.25
2023-05-16T16:05:09.898Z,2.20
2023-05-16T16:07:58.983Z,2.38
2023-05-16T16:10:47.983Z,2.25
2023-05-16T16:13:38.146Z,2.80
2023-05-16T16:16:26.941Z,2.47
2023-05-16T16:19:15.978Z,2.45
2023-05-16T16:22:06.109Z,2.47
2023-05-16T16:24:56.266Z,2.65
2023-05-16T16:27:45.130Z,2.72
2023-05-16T16:30:35.689Z,2.55
2023-05-16T16:33:24.708Z,2.72
2023-05-16T16:36:13.576Z,2.50
2023-05-16T16:39:02.400Z,2.55
2023-05-16T16:41:51.300Z,2.40
2023-05-16T16:44:40.035Z,2.17
2023-05-16T16:47:30.338Z,2.17
2023-05-16T16:50:19.674Z,2.13
2023-05-16T16:53:08.752Z,2.42
2023-05-16T16:55:57.498Z,2.22
2023-05-16T16:58:46.429Z,2.60
2023-05-16T17:01:35.378Z,2.28
2023-05-16T17:04:25.668Z,1.92
2023-05-16T17:07:15.156Z,1.95
2023-05-16T17:10:04.933Z,2.00
2023-05-16T17:12:54.794Z,2.10
2023-05-16T17:15:44.314Z,2.00
2023-05-16T17:18:34.922Z,1.95
2023-05-16T17:21:26.841Z,2.38
2023-05-16T17:24:15.601Z,2.17
2023-05-16T17:27:05.073Z,2.15
2023-05-16T17:29:54.130Z,2.13
2023-05-16T17:32:42.962Z,2.22
2023-05-16T17:35:32.202Z,2.30
2023-05-16T17:38:22.602Z,2.47
2023-05-16T17:41:11.719Z,2.60
2023-05-16T17:44:01.068Z,2.47
2023-05-16T17:46:49.933Z,2.70
2023-05-16T17:49:38.768Z,2.70
2023-05-16T17:52:27.752Z,2.70
2023-05-16T17:55:18.298Z,3.13
2023-05-16T17:58:09.758Z,3.00
2023-05-16T18:00:59.036Z,2.90
2023-05-16T18:03:48.200Z,3.10
2023-05-16T18:06:38.413Z,3.35
2023-05-16T18:09:27.340Z,3.25
2023-05-16T18:12:18.381Z,3.30
2023-05-16T18:15:09.082Z,3.05
2023-05-16T18:17:58.055Z,3.30
2023-05-16T18:20:47.468Z,3.55
2023-05-16T18:23:36.502Z,3.15
2023-05-16T18:26:25.510Z,3.60
2023-05-16T18:29:15.853Z,3.40
2023-05-16T18:32:04.906Z,3.47
2023-05-16T18:34:53.765Z,3.20
2023-05-16T18:37:44.349Z,3.53
2023-05-16T18:40:34.467Z,3.40
2023-05-16T18:43:23.544Z,3.30
2023-05-16T18:46:13.937Z,3.53
2023-05-16T18:49:03.089Z,3.53
2023-05-16T18:51:52.117Z,3.20
2023-05-16T18:54:41.344Z,3.83
2023-05-16T18:57:30.300Z,3.75
2023-05-16T19:00:20.738Z,3.70
2023-05-16T19:03:13.472Z,3.45
2023-05-16T19:06:02.553Z,3.60
2023-05-16T19:08:51.573Z,4.03
2023-05-16T19:11:40.558Z,4.13
2023-05-16T19:14:29.504Z,4.28
2023-05-16T19:17:18.608Z,4.20
2023-05-16T19:20:11.042Z,4.32
2023-05-16T19:23:00.017Z,4.63
2023-05-16T19:25:49.224Z,4.50
2023-05-16T19:28:40.711Z,4.40
2023-05-16T19:31:29.931Z,4.50
2023-05-16T19:34:20.798Z,4.55
2023-05-16T19:37:11.577Z,4.90
2023-05-16T19:40:00.415Z,5.10
2023-05-16T19:42:49.975Z,5.10
2023-05-16T19:45:38.795Z,5.15
2023-05-16T19:48:28.168Z,4.90
2023-05-16T19:51:23.796Z,5.38
2023-05-16T19:54:22.068Z,5.50
2023-05-16T19:57:10.884Z,5.15
2023-05-16T19:59:59.632Z,4.90
2023-05-16T20:02:48.514Z,5.20
2023-05-16T20:05:37.498Z,5.03
2023-05-16T20:08:26.339Z,4.95
2023-05-16T20:11:17.397Z,4.95
2023-05-16T20:14:06.491Z,4.97
2023-05-16T20:16:55.704Z,5.38
2023-05-16T20:19:44.846Z,4.53
2023-05-16T20:22:34.072Z,5.47
2023-05-16T20:25:22.966Z,4.80
2023-05-16T20:28:13.606Z,5.40
2023-05-16T20:31:02.673Z,5.22
2023-05-16T20:33:51.637Z,5.22
2023-05-16T20:36:40.636Z,5.70
2023-05-16T20:39:31.024Z,5.60
2023-05-16T20:42:19.882Z,5.10
2023-05-16T20:45:11.718Z,5.57
2023-05-16T20:48:01.003Z,5.35
2023-05-16T20:50:50.131Z,5.40
2023-05-16T20:53:39.377Z,5.07
2023-05-16T20:56:28.197Z,5.13
2023-05-16T20:59:17.413Z,5.03
2023-05-16T21:02:10.332Z,5.22
2023-05-16T21:05:02.221Z,5.10
2023-05-16T21:07:58.848Z,5.22
2023-05-16T21:10:47.608Z,5.10
2023-05-16T21:13:36.516Z,5.28
2023-05-16T21:16:25.268Z,5.10
2023-05-16T21:19:15.481Z,5.40
2023-05-16T21:22:04.523Z,5.85
2023-05-16T21:24:53.328Z,5.72
2023-05-16T21:27:42.510Z,5.88
2023-05-16T21:30:31.856Z,5.97
2023-05-16T21:33:20.734Z,5.65
2023-05-16T21:36:11.432Z,5.50
2023-05-16T21:39:00.292Z,6.03
2023-05-16T21:41:49.318Z,5.50
2023-05-16T21:44:38.186Z,5.82
2023-05-16T21:47:27.269Z,6.13
2023-05-16T21:50:16.247Z,5.90
2023-05-16T21:53:06.524Z,6.25
2023-05-16T21:55:55.488Z,6.00
2023-05-16T21:58:44.579Z,5.35
2023-05-16T22:01:33.588Z,5.35
2023-05-16T22:04:23.832Z,5.25
2023-05-16T22:07:12.880Z,4.90
2023-05-16T22:10:05.135Z,5.72
2023-05-16T22:12:54.160Z,5.22
2023-05-16T22:15:46.736Z,5.80
2023-05-16T22:18:41.267Z,5.00
2023-05-16T22:21:30.222Z,6.30
2023-05-16T22:24:19.000Z,5.50
2023-05-16T22:27:09.366Z,5.70
2023-05-16T22:29:58.124Z,6.10
2023-05-16T22:32:47.175Z,5.90
2023-05-16T22:35:36.003Z,6.80
2023-05-16T22:38:24.773Z,6.95
2023-05-16T22:41:13.645Z,6.35
2023-05-16T22:44:04.131Z,6.97
2023-05-16T22:46:53.131Z,7.22
2023-05-16T22:49:41.850Z,7.05
2023-05-16T22:52:30.985Z,7.45
2023-05-16T22:55:19.927Z,7.78
2023-05-16T22:58:08.701Z,8.77
2023-05-16T23:00:59.431Z,8.48
2023-05-16T23:03:48.661Z,8.60
2023-05-16T23:06:37.761Z,8.80
2023-05-16T23:09:27.243Z,8.65
2023-05-16T23:12:16.036Z,8.88
2023-05-16T23:15:06.611Z,8.60
2023-05-16T23:17:56.926Z,10.05
2023-05-16T23:20:45.997Z,9.65
2023-05-16T23:23:35.092Z,8.85
2023-05-16T23:26:23.781Z,10.15
2023-05-16T23:29:12.528Z,10.20
2023-05-16T23:32:01.324Z,10.35
2023-05-16T23:34:52.121Z,10.82
2023-05-16T23:37:41.202Z,11.00
2023-05-16T23:40:30.104Z,12.00
2023-05-16T23:43:18.980Z,12.23
2023-05-16T23:46:11.198Z,11.43
2023-05-16T23:49:00.416Z,11.88
2023-05-16T23:54:42.658Z,10.80
2023-05-16T23:57:31.305Z,10.07
